sensor_id;sensor_type;location;lat;lon;timestamp;pressure;altitude;pressure_sealevel;temperature;humidity
68506;BME280;55509;50.680;17.942;2023-02-22T00:01:15;99719.09;;;5.24;79.82
68506;BME280;55509;50.680;17.942;2023-02-22T00:04:28;99721.93;;;5.17;80.51
68506;BME280;55509;50.680;17.942;2023-02-22T00:07:30;99724.57;;;5.11;80.61
68506;BME280;55509;50.680;17.942;2023-02-22T00:10:43;99725.11;;;5.06;81.14
68506;BME280;55509;50.680;17.942;2023-02-22T00:13:45;99731.77;;;5.00;81.46
68506;BME280;55509;50.680;17.942;2023-02-22T00:16:47;99727.44;;;4.94;81.60
68506;BME280;55509;50.680;17.942;2023-02-22T00:19:51;99729.89;;;4.90;81.73
68506;BME280;55509;50.680;17.942;2023-02-22T00:23:00;99732.00;;;4.85;82.28
68506;BME280;55509;50.680;17.942;2023-02-22T00:26:21;99730.09;;;4.85;82.75
68506;BME280;55509;50.680;17.942;2023-02-22T00:29:23;99727.98;;;4.90;82.82
68506;BME280;55509;50.680;17.942;2023-02-22T00:32:37;99734.04;;;4.98;82.95
68506;BME280;55509;50.680;17.942;2023-02-22T00:35:47;99732.08;;;5.07;83.32
68506;BME280;55509;50.680;17.942;2023-02-22T00:38:54;99730.98;;;5.17;83.58
68506;BME280;55509;50.680;17.942;2023-02-22T00:41:59;99730.41;;;5.27;83.09
68506;BME280;55509;50.680;17.942;2023-02-22T00:45:01;99735.93;;;5.37;83.24
68506;BME280;55509;50.680;17.942;2023-02-22T00:48:07;99737.11;;;5.46;83.30
68506;BME280;55509;50.680;17.942;2023-02-22T00:51:16;99739.84;;;5.54;83.07
68506;BME280;55509;50.680;17.942;2023-02-22T00:54:21;99749.59;;;5.58;82.73
68506;BME280;55509;50.680;17.942;2023-02-22T00:57:23;99747.65;;;5.59;82.40
68506;BME280;55509;50.680;17.942;2023-02-22T01:00:28;99751.70;;;5.55;81.95
68506;BME280;55509;50.680;17.942;2023-02-22T01:03:33;99752.42;;;5.48;82.25
68506;BME280;55509;50.680;17.942;2023-02-22T01:06:35;99753.34;;;5.43;81.84
68506;BME280;55509;50.680;17.942;2023-02-22T01:09:40;99751.29;;;5.35;81.88
68506;BME280;55509;50.680;17.942;2023-02-22T01:12:49;99752.54;;;5.29;82.31
68506;BME280;55509;50.680;17.942;2023-02-22T01:15:51;99750.33;;;5.19;82.42
68506;BME280;55509;50.680;17.942;2023-02-22T01:18:53;99745.31;;;5.11;82.43
68506;BME280;55509;50.680;17.942;2023-02-22T01:21:57;99748.30;;;5.05;82.80
68506;BME280;55509;50.680;17.942;2023-02-22T01:25:08;99746.59;;;4.98;82.75
68506;BME280;55509;50.680;17.942;2023-02-22T01:28:11;99744.86;;;4.94;83.11
68506;BME280;55509;50.680;17.942;2023-02-22T01:31:22;99743.66;;;4.91;83.28
68506;BME280;55509;50.680;17.942;2023-02-22T01:34:24;99745.40;;;4.93;83.15
68506;BME280;55509;50.680;17.942;2023-02-22T01:37:26;99749.38;;;4.97;82.93
68506;BME280;55509;50.680;17.942;2023-02-22T01:40:32;99747.79;;;5.02;83.32
68506;BME280;55509;50.680;17.942;2023-02-22T01:43:37;99751.27;;;5.07;82.91
68506;BME280;55509;50.680;17.942;2023-02-22T01:46:47;99748.80;;;5.12;82.79
68506;BME280;55509;50.680;17.942;2023-02-22T01:49:49;99748.77;;;5.18;82.53
68506;BME280;55509;50.680;17.942;2023-02-22T01:52:54;99748.23;;;5.20;82.20
68506;BME280;55509;50.680;17.942;2023-02-22T01:55:59;99749.11;;;5.20;81.84
68506;BME280;55509;50.680;17.942;2023-02-22T01:59:13;99747.73;;;5.17;81.88
68506;BME280;55509;50.680;17.942;2023-02-22T02:02:22;99752.11;;;5.13;81.83
68506;BME280;55509;50.680;17.942;2023-02-22T02:05:47;99750.19;;;5.11;81.86
68506;BME280;55509;50.680;17.942;2023-02-22T02:08:58;99753.70;;;5.07;81.68
68506;BME280;55509;50.680;17.942;2023-02-22T02:12:11;99752.15;;;5.02;81.85
68506;BME280;55509;50.680;17.942;2023-02-22T02:15:16;99750.42;;;4.98;82.30
68506;BME280;55509;50.680;17.942;2023-02-22T02:18:18;99748.52;;;4.95;82.14
68506;BME280;55509;50.680;17.942;2023-02-22T02:35:13;99744.73;;;4.86;82.51
68506;BME280;55509;50.680;17.942;2023-02-22T02:41:49;99745.92;;;4.88;82.93
68506;BME280;55509;50.680;17.942;2023-02-22T02:44:58;99743.48;;;4.92;82.74
68506;BME280;55509;50.680;17.942;2023-02-22T02:48:20;99748.50;;;4.99;82.84
68506;BME280;55509;50.680;17.942;2023-02-22T02:51:59;99747.77;;;5.07;82.98
68506;BME280;55509;50.680;17.942;2023-02-22T02:55:10;99752.29;;;5.10;82.62
68506;BME280;55509;50.680;17.942;2023-02-22T02:58:17;99748.80;;;5.10;82.40
68506;BME280;55509;50.680;17.942;2023-02-22T03:05:20;99751.63;;;5.04;82.24
68506;BME280;55509;50.680;17.942;2023-02-22T03:09:16;99749.54;;;5.00;82.91
68506;BME280;55509;50.680;17.942;2023-02-22T03:15:24;99748.52;;;4.94;82.88
68506;BME280;55509;50.680;17.942;2023-02-22T03:19:18;99753.94;;;4.90;82.64
68506;BME280;55509;50.680;17.942;2023-02-22T03:22:06;99754.30;;;4.85;83.19
68506;BME280;55509;50.680;17.942;2023-02-22T03:25:15;99754.48;;;4.82;83.24
68506;BME280;55509;50.680;17.942;2023-02-22T03:28:19;99751.71;;;4.79;83.45
68506;BME280;55509;50.680;17.942;2023-02-22T03:31:26;99756.95;;;4.75;83.76
68506;BME280;55509;50.680;17.942;2023-02-22T03:34:51;99756.80;;;4.70;83.55
68506;BME280;55509;50.680;17.942;2023-02-22T03:38:18;99754.88;;;4.67;84.29
68506;BME280;55509;50.680;17.942;2023-02-22T03:41:21;99758.21;;;4.64;84.35
68506;BME280;55509;50.680;17.942;2023-02-22T03:44:30;99761.00;;;4.61;84.56
68506;BME280;55509;50.680;17.942;2023-02-22T03:47:36;99761.88;;;4.59;84.42
68506;BME280;55509;50.680;17.942;2023-02-22T03:50:52;99766.05;;;4.58;84.89
68506;BME280;55509;50.680;17.942;2023-02-22T03:53:54;99769.89;;;4.61;85.10
68506;BME280;55509;50.680;17.942;2023-02-22T03:57:05;99765.69;;;4.66;85.05
68506;BME280;55509;50.680;17.942;2023-02-22T04:00:19;99770.38;;;4.73;85.03
68506;BME280;55509;50.680;17.942;2023-02-22T04:03:22;99770.36;;;4.80;84.99
68506;BME280;55509;50.680;17.942;2023-02-22T04:10:23;99775.52;;;4.95;84.85
68506;BME280;55509;50.680;17.942;2023-02-22T04:13:25;99776.04;;;4.99;84.84
68506;BME280;55509;50.680;17.942;2023-02-22T04:16:27;99773.59;;;4.99;84.50
68506;BME280;55509;50.680;17.942;2023-02-22T04:19:38;99775.69;;;4.97;85.16
68506;BME280;55509;50.680;17.942;2023-02-22T04:22:40;99772.39;;;4.96;84.71
68506;BME280;55509;50.680;17.942;2023-02-22T04:28:54;99770.16;;;4.88;84.56
68506;BME280;55509;50.680;17.942;2023-02-22T04:31:55;99764.42;;;4.84;84.60
68506;BME280;55509;50.680;17.942;2023-02-22T04:34:57;99760.95;;;4.79;84.53
68506;BME280;55509;50.680;17.942;2023-02-22T04:38:17;99759.41;;;4.73;84.71
68506;BME280;55509;50.680;17.942;2023-02-22T04:41:25;99756.28;;;4.66;84.66
68506;BME280;55509;50.680;17.942;2023-02-22T04:44:36;99752.30;;;4.59;84.79
68506;BME280;55509;50.680;17.942;2023-02-22T04:47:40;99752.84;;;4.54;85.07
68506;BME280;55509;50.680;17.942;2023-02-22T04:50:51;99756.13;;;4.55;85.35
68506;BME280;55509;50.680;17.942;2023-02-22T04:54:02;99752.65;;;4.58;85.43
68506;BME280;55509;50.680;17.942;2023-02-22T04:57:09;99748.81;;;4.63;85.31
68506;BME280;55509;50.680;17.942;2023-02-22T05:00:14;99748.10;;;4.65;85.49
68506;BME280;55509;50.680;17.942;2023-02-22T05:03:16;99754.88;;;4.72;85.77
68506;BME280;55509;50.680;17.942;2023-02-22T05:06:29;99758.71;;;4.74;85.33
68506;BME280;55509;50.680;17.942;2023-02-22T05:09:34;99760.09;;;4.76;85.51
68506;BME280;55509;50.680;17.942;2023-02-22T05:12:45;99764.09;;;4.75;85.41
68506;BME280;55509;50.680;17.942;2023-02-22T05:15:46;99762.54;;;4.72;85.88
68506;BME280;55509;50.680;17.942;2023-02-22T05:18:57;99767.08;;;4.68;85.75
68506;BME280;55509;50.680;17.942;2023-02-22T05:22:10;99763.08;;;4.64;85.87
68506;BME280;55509;50.680;17.942;2023-02-22T05:25:11;99767.27;;;4.60;86.09
68506;BME280;55509;50.680;17.942;2023-02-22T05:28:25;99764.15;;;4.56;86.24
68506;BME280;55509;50.680;17.942;2023-02-22T05:31:35;99768.16;;;4.57;86.45
68506;BME280;55509;50.680;17.942;2023-02-22T05:34:46;99766.23;;;4.59;86.34
68506;BME280;55509;50.680;17.942;2023-02-22T05:37:48;99766.22;;;4.61;86.13
68506;BME280;55509;50.680;17.942;2023-02-22T05:40:51;99768.83;;;4.66;86.35
68506;BME280;55509;50.680;17.942;2023-02-22T05:43:52;99774.91;;;4.73;86.62
68506;BME280;55509;50.680;17.942;2023-02-22T05:47:03;99766.53;;;4.76;86.45
68506;BME280;55509;50.680;17.942;2023-02-22T05:50:08;99766.88;;;4.79;86.79
68506;BME280;55509;50.680;17.942;2023-02-22T05:53:10;99772.44;;;4.80;86.61
68506;BME280;55509;50.680;17.942;2023-02-22T05:56:11;99775.06;;;4.80;86.36
68506;BME280;55509;50.680;17.942;2023-02-22T06:02:38;99786.38;;;4.77;86.44
68506;BME280;55509;50.680;17.942;2023-02-22T06:05:42;99785.36;;;4.75;86.24
68506;BME280;55509;50.680;17.942;2023-02-22T06:08:59;99789.71;;;4.72;86.58
68506;BME280;55509;50.680;17.942;2023-02-22T06:12:04;99788.84;;;4.70;86.45
68506;BME280;55509;50.680;17.942;2023-02-22T06:15:06;99795.30;;;4.69;86.40
68506;BME280;55509;50.680;17.942;2023-02-22T06:18:15;99794.24;;;4.71;86.46
68506;BME280;55509;50.680;17.942;2023-02-22T06:21:26;99800.51;;;4.73;86.62
68506;BME280;55509;50.680;17.942;2023-02-22T06:24:27;99807.14;;;4.75;86.47
68506;BME280;55509;50.680;17.942;2023-02-22T06:27:31;99802.59;;;4.78;86.39
68506;BME280;55509;50.680;17.942;2023-02-22T06:30:33;99804.48;;;4.86;86.48
68506;BME280;55509;50.680;17.942;2023-02-22T06:33:35;99806.20;;;4.97;86.45
68506;BME280;55509;50.680;17.942;2023-02-22T06:36:46;99810.52;;;5.07;86.30
68506;BME280;55509;50.680;17.942;2023-02-22T06:39:48;99816.92;;;5.18;86.30
68506;BME280;55509;50.680;17.942;2023-02-22T06:43:10;99814.44;;;5.29;85.97
68506;BME280;55509;50.680;17.942;2023-02-22T06:46:12;99819.81;;;5.37;85.73
68506;BME280;55509;50.680;17.942;2023-02-22T06:49:23;99823.45;;;5.42;85.03
68506;BME280;55509;50.680;17.942;2023-02-22T06:52:25;99824.13;;;5.45;85.08
68506;BME280;55509;50.680;17.942;2023-02-22T06:55:27;99829.88;;;5.46;84.60
68506;BME280;55509;50.680;17.942;2023-02-22T06:58:32;99827.77;;;5.46;84.60
68506;BME280;55509;50.680;17.942;2023-02-22T07:01:44;99834.92;;;5.49;84.64
68506;BME280;55509;50.680;17.942;2023-02-22T07:04:49;99832.10;;;5.56;84.53
68506;BME280;55509;50.680;17.942;2023-02-22T07:07:51;99833.46;;;5.62;84.25
68506;BME280;55509;50.680;17.942;2023-02-22T07:14:05;99839.15;;;5.76;83.61
68506;BME280;55509;50.680;17.942;2023-02-22T07:17:07;99842.05;;;5.85;83.75
68506;BME280;55509;50.680;17.942;2023-02-22T07:20:09;99842.34;;;5.94;83.03
68506;BME280;55509;50.680;17.942;2023-02-22T07:23:15;99842.83;;;6.04;82.18
68506;BME280;55509;50.680;17.942;2023-02-22T07:26:25;99841.52;;;6.17;82.16
68506;BME280;55509;50.680;17.942;2023-02-22T07:29:27;99840.38;;;6.30;81.74
68506;BME280;55509;50.680;17.942;2023-02-22T07:32:29;99837.48;;;6.42;81.33
68506;BME280;55509;50.680;17.942;2023-02-22T07:35:37;99835.95;;;6.56;81.13
68506;BME280;55509;50.680;17.942;2023-02-22T07:38:39;99838.11;;;6.69;80.58
68506;BME280;55509;50.680;17.942;2023-02-22T07:41:41;99836.95;;;6.79;80.24
68506;BME280;55509;50.680;17.942;2023-02-22T07:44:42;99836.55;;;6.85;80.01
68506;BME280;55509;50.680;17.942;2023-02-22T07:47:47;99837.70;;;6.92;80.15
68506;BME280;55509;50.680;17.942;2023-02-22T07:50:49;99833.23;;;7.00;79.74
68506;BME280;55509;50.680;17.942;2023-02-22T07:53:50;99836.17;;;7.03;79.60
68506;BME280;55509;50.680;17.942;2023-02-22T07:56:52;99836.86;;;7.06;79.47
68506;BME280;55509;50.680;17.942;2023-02-22T07:59:56;99838.73;;;7.11;79.35
68506;BME280;55509;50.680;17.942;2023-02-22T08:02:59;99837.77;;;7.17;78.89
68506;BME280;55509;50.680;17.942;2023-02-22T08:06:01;99840.33;;;7.22;78.91
68506;BME280;55509;50.680;17.942;2023-02-22T08:09:03;99839.08;;;7.24;78.63
68506;BME280;55509;50.680;17.942;2023-02-22T08:12:05;99839.10;;;7.22;78.39
68506;BME280;55509;50.680;17.942;2023-02-22T08:15:08;99838.40;;;7.22;78.49
68506;BME280;55509;50.680;17.942;2023-02-22T08:18:11;99840.67;;;7.22;78.25
68506;BME280;55509;50.680;17.942;2023-02-22T08:21:14;99844.20;;;7.20;78.04
68506;BME280;55509;50.680;17.942;2023-02-22T08:24:16;99845.09;;;7.20;77.90
68506;BME280;55509;50.680;17.942;2023-02-22T08:27:21;99844.00;;;7.22;77.78
68506;BME280;55509;50.680;17.942;2023-02-22T08:30:22;99847.80;;;7.25;77.51
68506;BME280;55509;50.680;17.942;2023-02-22T08:33:24;99847.80;;;7.27;77.02
68506;BME280;55509;50.680;17.942;2023-02-22T08:36:29;99844.08;;;7.31;77.38
68506;BME280;55509;50.680;17.942;2023-02-22T08:39:33;99844.14;;;7.40;77.57
68506;BME280;55509;50.680;17.942;2023-02-22T08:42:35;99845.09;;;7.49;76.75
68506;BME280;55509;50.680;17.942;2023-02-22T08:45:39;99846.33;;;7.60;76.65
68506;BME280;55509;50.680;17.942;2023-02-22T08:48:50;99844.02;;;7.76;76.70
68506;BME280;55509;50.680;17.942;2023-02-22T08:51:52;99843.98;;;7.91;76.07
68506;BME280;55509;50.680;17.942;2023-02-22T08:54:53;99851.52;;;8.02;75.80
68506;BME280;55509;50.680;17.942;2023-02-22T08:57:56;99846.11;;;8.12;75.43
68506;BME280;55509;50.680;17.942;2023-02-22T09:01:00;99846.56;;;8.17;74.82
68506;BME280;55509;50.680;17.942;2023-02-22T09:04:02;99842.11;;;8.21;74.62
68506;BME280;55509;50.680;17.942;2023-02-22T09:07:04;99839.33;;;8.31;74.34
68506;BME280;55509;50.680;17.942;2023-02-22T09:10:06;99843.34;;;8.43;73.70
68506;BME280;55509;50.680;17.942;2023-02-22T09:13:07;99838.33;;;8.51;73.05
68506;BME280;55509;50.680;17.942;2023-02-22T09:16:09;99843.19;;;8.64;72.25
68506;BME280;55509;50.680;17.942;2023-02-22T09:19:10;99841.00;;;8.70;70.95
68506;BME280;55509;50.680;17.942;2023-02-22T09:22:14;99841.73;;;8.77;70.52
68506;BME280;55509;50.680;17.942;2023-02-22T09:25:16;99848.70;;;8.80;69.56
68506;BME280;55509;50.680;17.942;2023-02-22T09:28:20;99849.83;;;8.86;69.98
68506;BME280;55509;50.680;17.942;2023-02-22T09:31:22;99848.58;;;8.96;70.13
68506;BME280;55509;50.680;17.942;2023-02-22T09:34:24;99841.27;;;9.11;70.05
68506;BME280;55509;50.680;17.942;2023-02-22T09:37:45;99844.28;;;9.27;69.68
68506;BME280;55509;50.680;17.942;2023-02-22T09:41:24;99843.71;;;9.39;69.19
68506;BME280;55509;50.680;17.942;2023-02-22T09:44:37;99842.59;;;9.50;68.65
68506;BME280;55509;50.680;17.942;2023-02-22T09:47:42;99845.91;;;9.59;67.63
68506;BME280;55509;50.680;17.942;2023-02-22T09:50:48;99842.54;;;9.61;65.75
68506;BME280;55509;50.680;17.942;2023-02-22T09:53:52;99840.39;;;9.71;66.60
68506;BME280;55509;50.680;17.942;2023-02-22T09:56:56;99838.83;;;10.09;66.59
68506;BME280;55509;50.680;17.942;2023-02-22T10:00:05;99830.16;;;10.62;65.42
68506;BME280;55509;50.680;17.942;2023-02-22T10:06:19;99827.80;;;12.13;61.13
68506;BME280;55509;50.680;17.942;2023-02-22T10:09:23;99822.35;;;12.55;60.09
68506;BME280;55509;50.680;17.942;2023-02-22T10:12:28;99817.66;;;13.23;59.18
68506;BME280;55509;50.680;17.942;2023-02-22T10:25:13;99807.16;;;14.64;56.21
68506;BME280;55509;50.680;17.942;2023-02-22T10:28:40;99807.48;;;14.91;54.96
68506;BME280;55509;50.680;17.942;2023-02-22T10:31:40;99806.38;;;14.88;54.49
68506;BME280;55509;50.680;17.942;2023-02-22T10:34:47;99810.70;;;14.94;53.50
68506;BME280;55509;50.680;17.942;2023-02-22T10:38:16;99810.59;;;15.51;51.77
68506;BME280;55509;50.680;17.942;2023-02-22T10:41:22;99804.14;;;16.17;49.09
68506;BME280;55509;50.680;17.942;2023-02-22T10:44:27;99804.41;;;15.89;49.71
68506;BME280;55509;50.680;17.942;2023-02-22T10:47:29;99799.98;;;15.66;49.72
68506;BME280;55509;50.680;17.942;2023-02-22T10:50:31;99800.16;;;15.20;49.53
68506;BME280;55509;50.680;17.942;2023-02-22T10:53:35;99805.27;;;14.59;50.84
68506;BME280;55509;50.680;17.942;2023-02-22T10:56:48;99802.92;;;14.04;51.68
68506;BME280;55509;50.680;17.942;2023-02-22T10:59:50;99806.59;;;13.37;52.11
68506;BME280;55509;50.680;17.942;2023-02-22T11:02:53;99800.91;;;12.73;52.64
68506;BME280;55509;50.680;17.942;2023-02-22T11:05:56;99803.79;;;12.19;53.22
68506;BME280;55509;50.680;17.942;2023-02-22T11:09:17;99810.15;;;11.62;53.71
68506;BME280;55509;50.680;17.942;2023-02-22T11:12:20;99806.45;;;11.20;54.55
68506;BME280;55509;50.680;17.942;2023-02-22T11:18:24;99799.52;;;10.78;53.93
68506;BME280;55509;50.680;17.942;2023-02-22T11:21:26;99797.52;;;11.17;54.53
68506;BME280;55509;50.680;17.942;2023-02-22T11:24:30;99797.50;;;12.39;53.65
68506;BME280;55509;50.680;17.942;2023-02-22T11:27:42;99795.96;;;12.64;51.98
68506;BME280;55509;50.680;17.942;2023-02-22T11:30:48;99793.58;;;12.46;51.05
68506;BME280;55509;50.680;17.942;2023-02-22T11:33:55;99792.34;;;12.30;50.48
68506;BME280;55509;50.680;17.942;2023-02-22T11:37:26;99791.64;;;12.08;48.35
68506;BME280;55509;50.680;17.942;2023-02-22T11:40:20;99785.89;;;11.66;48.39
68506;BME280;55509;50.680;17.942;2023-02-22T11:43:22;99786.59;;;11.37;49.64
68506;BME280;55509;50.680;17.942;2023-02-22T11:46:26;99789.05;;;11.19;49.33
68506;BME280;55509;50.680;17.942;2023-02-22T11:49:33;99784.57;;;11.03;50.06
68506;BME280;55509;50.680;17.942;2023-02-22T11:52:38;99783.65;;;10.92;50.22
68506;BME280;55509;50.680;17.942;2023-02-22T12:01:58;99778.73;;;12.04;48.99
68506;BME280;55509;50.680;17.942;2023-02-22T12:05:10;99773.48;;;12.85;47.99
68506;BME280;55509;50.680;17.942;2023-02-22T12:14:53;99763.80;;;16.93;43.81
68506;BME280;55509;50.680;17.942;2023-02-22T12:18:09;99751.23;;;19.78;39.99
68506;BME280;55509;50.680;17.942;2023-02-22T12:21:15;99750.70;;;20.44;35.51
68506;BME280;55509;50.680;17.942;2023-02-22T12:24:20;99751.77;;;19.57;35.17
68506;BME280;55509;50.680;17.942;2023-02-22T12:27:24;99752.16;;;18.70;36.28
68506;BME280;55509;50.680;17.942;2023-02-22T12:30:29;99756.26;;;17.78;35.92
68506;BME280;55509;50.680;17.942;2023-02-22T12:33:44;99754.04;;;16.81;36.52
68506;BME280;55509;50.680;17.942;2023-02-22T12:36:54;99756.17;;;15.82;37.51
68506;BME280;55509;50.680;17.942;2023-02-22T12:40:06;99757.48;;;15.12;39.31
68506;BME280;55509;50.680;17.942;2023-02-22T12:46:18;99764.71;;;14.01;40.50
68506;BME280;55509;50.680;17.942;2023-02-22T12:55:41;99765.48;;;12.73;42.49
68506;BME280;55509;50.680;17.942;2023-02-22T12:58:50;99762.42;;;12.34;43.33
68506;BME280;55509;50.680;17.942;2023-02-22T13:01:56;99765.59;;;12.07;43.90
68506;BME280;55509;50.680;17.942;2023-02-22T13:05:00;99769.63;;;11.85;44.73
68506;BME280;55509;50.680;17.942;2023-02-22T13:08:49;99765.91;;;11.63;45.03
68506;BME280;55509;50.680;17.942;2023-02-22T13:14:37;99763.54;;;11.25;46.13
68506;BME280;55509;50.680;17.942;2023-02-22T13:20:58;99754.88;;;10.89;46.71
68506;BME280;55509;50.680;17.942;2023-02-22T13:24:23;99756.37;;;10.80;47.13
68506;BME280;55509;50.680;17.942;2023-02-22T13:27:25;99752.68;;;10.79;47.29
68506;BME280;55509;50.680;17.942;2023-02-22T13:30:38;99751.63;;;10.92;47.36
68506;BME280;55509;50.680;17.942;2023-02-22T13:33:57;99748.77;;;11.06;46.94
68506;BME280;55509;50.680;17.942;2023-02-22T13:43:42;99754.77;;;11.24;48.24
68506;BME280;55509;50.680;17.942;2023-02-22T13:53:24;99753.23;;;11.09;48.61
68506;BME280;55509;50.680;17.942;2023-02-22T13:56:26;99752.30;;;11.70;48.53
68506;BME280;55509;50.680;17.942;2023-02-22T13:59:35;99749.95;;;12.48;47.37
68506;BME280;55509;50.680;17.942;2023-02-22T14:05:57;99748.61;;;13.24;45.38
68506;BME280;55509;50.680;17.942;2023-02-22T14:09:05;99746.70;;;13.14;45.49
68506;BME280;55509;50.680;17.942;2023-02-22T14:12:07;99750.03;;;13.09;45.70
68506;BME280;55509;50.680;17.942;2023-02-22T14:18:16;99748.42;;;14.06;44.31
68506;BME280;55509;50.680;17.942;2023-02-22T14:21:19;99752.00;;;13.83;44.01
68506;BME280;55509;50.680;17.942;2023-02-22T14:24:21;99746.41;;;13.99;42.48
68506;BME280;55509;50.680;17.942;2023-02-22T14:27:22;99749.14;;;14.43;41.46
68506;BME280;55509;50.680;17.942;2023-02-22T14:30:25;99742.48;;;15.41;40.76
68506;BME280;55509;50.680;17.942;2023-02-22T14:39:56;99736.80;;;14.99;40.80
68506;BME280;55509;50.680;17.942;2023-02-22T14:43:03;99740.04;;;14.24;40.94
68506;BME280;55509;50.680;17.942;2023-02-22T14:46:07;99742.38;;;13.53;41.71
68506;BME280;55509;50.680;17.942;2023-02-22T14:49:11;99738.12;;;12.73;42.13
68506;BME280;55509;50.680;17.942;2023-02-22T14:52:23;99742.85;;;12.01;43.98
68506;BME280;55509;50.680;17.942;2023-02-22T14:55:27;99749.00;;;11.52;44.58
68506;BME280;55509;50.680;17.942;2023-02-22T14:58:38;99742.09;;;10.99;45.84
68506;BME280;55509;50.680;17.942;2023-02-22T15:01:41;99743.20;;;10.73;46.84
68506;BME280;55509;50.680;17.942;2023-02-22T15:04:53;99743.67;;;10.48;47.34
68506;BME280;55509;50.680;17.942;2023-02-22T15:07:57;99747.27;;;10.24;47.60
68506;BME280;55509;50.680;17.942;2023-02-22T15:10:59;99749.69;;;9.97;48.15
68506;BME280;55509;50.680;17.942;2023-02-22T15:14:11;99753.33;;;9.77;48.81
68506;BME280;55509;50.680;17.942;2023-02-22T15:17:19;99754.77;;;9.53;49.34
68506;BME280;55509;50.680;17.942;2023-02-22T15:20:21;99760.14;;;9.32;49.80
68506;BME280;55509;50.680;17.942;2023-02-22T15:23:28;99758.80;;;9.21;50.43
68506;BME280;55509;50.680;17.942;2023-02-22T15:29:45;99761.39;;;8.89;51.11
68506;BME280;55509;50.680;17.942;2023-02-22T15:32:46;99763.41;;;8.65;51.43
68506;BME280;55509;50.680;17.942;2023-02-22T15:35:57;99759.95;;;8.43;51.89
68506;BME280;55509;50.680;17.942;2023-02-22T15:38:59;99756.92;;;8.25;52.15
68506;BME280;55509;50.680;17.942;2023-02-22T15:42:16;99760.02;;;8.08;52.88
68506;BME280;55509;50.680;17.942;2023-02-22T15:45:21;99756.27;;;7.91;53.37
68506;BME280;55509;50.680;17.942;2023-02-22T15:48:25;99755.80;;;7.75;53.56
68506;BME280;55509;50.680;17.942;2023-02-22T15:51:27;99752.17;;;7.60;53.87
68506;BME280;55509;50.680;17.942;2023-02-22T15:54:29;99756.95;;;7.45;54.30
68506;BME280;55509;50.680;17.942;2023-02-22T15:57:38;99758.55;;;7.29;54.83
68506;BME280;55509;50.680;17.942;2023-02-22T16:00:43;99761.02;;;7.14;55.80
68506;BME280;55509;50.680;17.942;2023-02-22T16:03:46;99761.55;;;7.01;56.16
68506;BME280;55509;50.680;17.942;2023-02-22T16:06:49;99760.98;;;6.88;56.68
68506;BME280;55509;50.680;17.942;2023-02-22T16:09:51;99758.34;;;6.77;57.10
68506;BME280;55509;50.680;17.942;2023-02-22T16:13:03;99762.64;;;6.67;57.65
68506;BME280;55509;50.680;17.942;2023-02-22T16:19:27;99768.09;;;6.47;58.39
68506;BME280;55509;50.680;17.942;2023-02-22T16:22:35;99769.92;;;6.37;58.99
68506;BME280;55509;50.680;17.942;2023-02-22T16:25:36;99769.31;;;6.29;59.42
68506;BME280;55509;50.680;17.942;2023-02-22T16:28:40;99771.98;;;6.21;59.61
68506;BME280;55509;50.680;17.942;2023-02-22T16:31:47;99776.41;;;6.15;59.70
68506;BME280;55509;50.680;17.942;2023-02-22T16:34:48;99784.13;;;6.10;59.76
68506;BME280;55509;50.680;17.942;2023-02-22T16:37:50;99789.22;;;6.06;60.27
68506;BME280;55509;50.680;17.942;2023-02-22T16:40:53;99788.01;;;6.01;60.54
68506;BME280;55509;50.680;17.942;2023-02-22T16:43:55;99792.75;;;5.98;60.59
68506;BME280;55509;50.680;17.942;2023-02-22T16:46:58;99797.63;;;5.99;61.35
68506;BME280;55509;50.680;17.942;2023-02-22T16:50:00;99796.20;;;6.02;61.53
68506;BME280;55509;50.680;17.942;2023-02-22T16:53:02;99793.94;;;6.03;61.28
68506;BME280;55509;50.680;17.942;2023-02-22T16:56:04;99798.84;;;6.03;61.46
68506;BME280;55509;50.680;17.942;2023-02-22T16:59:10;99798.84;;;6.03;61.24
68506;BME280;55509;50.680;17.942;2023-02-22T17:05:53;99800.23;;;6.00;61.18
68506;BME280;55509;50.680;17.942;2023-02-22T17:09:06;99803.74;;;5.97;61.08
68506;BME280;55509;50.680;17.942;2023-02-22T17:12:08;99805.55;;;5.90;61.45
68506;BME280;55509;50.680;17.942;2023-02-22T17:15:31;99806.45;;;5.85;61.65
68506;BME280;55509;50.680;17.942;2023-02-22T17:18:44;99807.02;;;5.80;61.65
68506;BME280;55509;50.680;17.942;2023-02-22T17:21:53;99808.44;;;5.76;62.07
68506;BME280;55509;50.680;17.942;2023-02-22T17:28:41;99809.85;;;5.73;62.55
68506;BME280;55509;50.680;17.942;2023-02-22T17:31:46;99813.01;;;5.71;62.36
68506;BME280;55509;50.680;17.942;2023-02-22T17:34:49;99813.36;;;5.69;62.43
68506;BME280;55509;50.680;17.942;2023-02-22T17:37:54;99811.80;;;5.67;62.64
68506;BME280;55509;50.680;17.942;2023-02-22T17:41:01;99814.62;;;5.65;62.81
68506;BME280;55509;50.680;17.942;2023-02-22T17:44:12;99811.83;;;5.63;62.84
68506;BME280;55509;50.680;17.942;2023-02-22T17:47:16;99811.84;;;5.61;63.11
68506;BME280;55509;50.680;17.942;2023-02-22T17:50:20;99813.06;;;5.60;62.94
68506;BME280;55509;50.680;17.942;2023-02-22T17:53:22;99817.27;;;5.58;62.79
68506;BME280;55509;50.680;17.942;2023-02-22T17:56:28;99815.17;;;5.56;63.28
68506;BME280;55509;50.680;17.942;2023-02-22T18:03:19;99813.98;;;5.52;62.87
68506;BME280;55509;50.680;17.942;2023-02-22T18:06:26;99811.39;;;5.49;62.78
68506;BME280;55509;50.680;17.942;2023-02-22T18:09:37;99810.68;;;5.47;62.98
68506;BME280;55509;50.680;17.942;2023-02-22T18:12:40;99806.35;;;5.45;62.87
68506;BME280;55509;50.680;17.942;2023-02-22T18:15:44;99811.26;;;5.41;63.07
68506;BME280;55509;50.680;17.942;2023-02-22T18:18:49;99813.36;;;5.36;63.09
68506;BME280;55509;50.680;17.942;2023-02-22T18:21:56;99813.73;;;5.31;63.40
68506;BME280;55509;50.680;17.942;2023-02-22T18:25:05;99816.53;;;5.30;63.40
68506;BME280;55509;50.680;17.942;2023-02-22T18:28:16;99815.67;;;5.28;63.58
68506;BME280;55509;50.680;17.942;2023-02-22T18:31:20;99814.80;;;5.26;63.25